createdAt,value
2023-02-11T00:00:17.690Z,29.80
2023-02-11T00:01:17.499Z,27.30
2023-02-11T00:01:51.397Z,27.90
2023-02-11T00:02:28.077Z,30.40
2023-02-11T00:03:01.978Z,26.80
2023-02-11T00:03:36.221Z,29.90
2023-02-11T00:04:10.794Z,29.90
2023-02-11T00:04:44.069Z,30.20
2023-02-11T00:05:17.673Z,30.10
2023-02-11T00:06:01.672Z,30.70
2023-02-11T00:06:35.923Z,27.20
2023-02-11T00:07:09.126Z,30.20
2023-02-11T00:07:42.479Z,28.90
2023-02-11T00:08:17.207Z,31.80
2023-02-11T00:08:50.578Z,31.30
2023-02-11T00:09:24.064Z,31.90
2023-02-11T00:09:57.452Z,32.10
2023-02-11T00:10:30.707Z,31.80
2023-02-11T00:11:05.481Z,30.30
2023-02-11T00:11:38.734Z,30.50
2023-02-11T00:12:12.021Z,30.30
2023-02-11T00:12:45.278Z,30.20
2023-02-11T00:13:18.471Z,28.80
2023-02-11T00:13:51.820Z,30.10
2023-02-11T00:14:25.260Z,30.70
2023-02-11T00:14:58.637Z,29.00
2023-02-11T00:15:32.077Z,30.20
2023-02-11T00:16:14.262Z,30.00
2023-02-11T00:16:47.411Z,27.90
2023-02-11T00:17:21.025Z,30.00
2023-02-11T00:17:54.323Z,31.00
2023-02-11T00:18:28.130Z,30.90
2023-02-11T00:19:03.232Z,31.50
2023-02-11T00:19:40.103Z,31.20
2023-02-11T00:20:13.485Z,30.50
2023-02-11T00:20:47.005Z,31.00
2023-02-11T00:21:22.858Z,31.30
2023-02-11T00:21:56.140Z,30.50
2023-02-11T00:22:29.426Z,30.20
2023-02-11T00:23:02.608Z,30.40
2023-02-11T00:23:36.656Z,31.50
2023-02-11T00:24:09.952Z,32.40
2023-02-11T00:24:43.430Z,32.60
2023-02-11T00:25:16.701Z,32.70
2023-02-11T00:25:50.281Z,33.70
2023-02-11T00:26:26.884Z,32.60
2023-02-11T00:27:00.304Z,34.30
2023-02-11T00:27:33.543Z,34.20
2023-02-11T00:28:07.067Z,33.70
2023-02-11T00:28:41.362Z,33.70
2023-02-11T00:29:15.577Z,31.80
2023-02-11T00:29:48.854Z,34.00
2023-02-11T00:30:22.271Z,33.80
2023-02-11T00:30:56.800Z,32.90
2023-02-11T00:31:30.311Z,32.10
2023-02-11T00:32:05.481Z,34.00
2023-02-11T00:32:38.778Z,34.80
2023-02-11T00:33:11.979Z,33.80
2023-02-11T00:33:45.787Z,33.40
2023-02-11T00:34:19.137Z,33.80
2023-02-11T00:34:53.718Z,34.10
2023-02-11T00:35:27.067Z,33.10
2023-02-11T00:36:07.987Z,33.30
2023-02-11T00:36:41.293Z,32.90
2023-02-11T00:37:14.576Z,29.70
2023-02-11T00:37:48.295Z,32.70
2023-02-11T00:38:21.500Z,34.80
2023-02-11T00:38:56.808Z,31.30
2023-02-11T00:39:30.733Z,30.90
2023-02-11T00:40:06.833Z,33.50
2023-02-11T00:40:40.113Z,34.40
2023-02-11T00:41:14.287Z,33.30
2023-02-11T00:41:47.592Z,34.70
2023-02-11T00:42:20.829Z,33.20
2023-02-11T00:42:54.070Z,33.90
2023-02-11T00:43:27.456Z,34.60
2023-02-11T00:44:01.563Z,33.40
2023-02-11T00:44:35.040Z,33.20
2023-02-11T00:45:10.233Z,33.80
2023-02-11T00:45:43.451Z,33.40
2023-02-11T00:46:17.138Z,34.30
2023-02-11T00:46:50.755Z,33.10
2023-02-11T00:47:26.919Z,31.00
2023-02-11T00:48:00.392Z,33.80
2023-02-11T00:48:35.059Z,34.70
2023-02-11T00:49:08.407Z,34.80
2023-02-11T00:49:41.821Z,33.30
2023-02-11T00:50:15.568Z,34.70
2023-02-11T00:50:48.875Z,35.30
2023-02-11T00:51:22.274Z,31.10
2023-02-11T00:51:55.547Z,33.60
2023-02-11T00:52:28.746Z,34.40
2023-02-11T00:53:02.776Z,33.00
2023-02-11T00:53:37.148Z,35.20
2023-02-11T00:54:10.648Z,35.90
2023-02-11T00:54:45.350Z,33.70
2023-02-11T00:55:18.896Z,33.40
2023-02-11T00:55:52.410Z,35.90
2023-02-11T00:56:25.877Z,35.50
2023-02-11T00:56:59.388Z,35.20
2023-02-11T00:57:32.805Z,34.20
2023-02-11T00:58:06.394Z,34.40
2023-02-11T00:58:39.769Z,34.50
2023-02-11T00:59:13.023Z,33.60
2023-02-11T00:59:46.183Z,33.80
2023-02-11T01:00:19.504Z,34.80
2023-02-11T01:00:54.344Z,34.60
2023-02-11T01:01:27.802Z,33.70
2023-02-11T01:02:01.159Z,35.50
2023-02-11T01:02:34.683Z,35.50
2023-02-11T01:03:08.092Z,35.00
2023-02-11T01:03:41.829Z,33.70
2023-02-11T01:04:15.236Z,36.40
2023-02-11T01:04:48.606Z,34.90
2023-02-11T01:05:22.077Z,34.80
2023-02-11T01:05:55.963Z,34.50
2023-02-11T01:06:29.323Z,35.10
2023-02-11T01:07:02.545Z,34.30
2023-02-11T01:07:36.158Z,35.10
2023-02-11T01:08:09.480Z,34.40
2023-02-11T01:08:43.593Z,34.50
2023-02-11T01:09:18.444Z,34.70
2023-02-11T01:09:54.689Z,32.90
2023-02-11T01:10:29.485Z,32.20
2023-02-11T01:11:05.983Z,31.40
2023-02-11T01:11:39.412Z,31.60
2023-02-11T01:12:13.446Z,29.50
2023-02-11T01:12:47.358Z,31.40
2023-02-11T01:13:20.685Z,31.50
2023-02-11T01:13:54.135Z,31.20
2023-02-11T01:14:28.748Z,31.80
2023-02-11T01:15:02.201Z,31.50
2023-02-11T01:15:36.290Z,31.40
2023-02-11T01:16:11.098Z,31.90
2023-02-11T01:16:44.643Z,32.60
2023-02-11T01:17:17.984Z,31.20
2023-02-11T01:17:51.340Z,32.30
2023-02-11T01:18:25.217Z,33.50
2023-02-11T01:18:59.080Z,32.30
2023-02-11T01:19:32.448Z,32.70
2023-02-11T01:20:08.453Z,32.00
2023-02-11T01:20:41.789Z,31.40
2023-02-11T01:21:15.211Z,30.70
2023-02-11T01:21:49.876Z,31.40
2023-02-11T01:22:23.349Z,32.00
2023-02-11T01:22:56.595Z,33.00
2023-02-11T01:23:29.951Z,32.90
2023-02-11T01:24:03.749Z,34.70
2023-02-11T01:24:37.089Z,34.60
2023-02-11T01:25:11.216Z,34.00
2023-02-11T01:25:44.639Z,33.70
2023-02-11T01:26:17.838Z,35.10
2023-02-11T01:26:51.261Z,36.10
2023-02-11T01:27:24.515Z,36.20
2023-02-11T01:27:57.909Z,33.30
2023-02-11T01:28:31.889Z,35.20
2023-02-11T01:29:06.486Z,35.70
2023-02-11T01:29:39.756Z,35.70
2023-02-11T01:30:14.958Z,37.50
2023-02-11T01:30:48.589Z,36.00
2023-02-11T01:31:21.869Z,35.20
2023-02-11T01:31:55.261Z,36.00
2023-02-11T01:32:28.488Z,36.00
2023-02-11T01:33:01.818Z,35.70
2023-02-11T01:33:36.562Z,37.50
2023-02-11T01:34:11.891Z,37.60
2023-02-11T01:34:45.034Z,35.70
2023-02-11T01:35:19.520Z,35.50
2023-02-11T01:35:53.141Z,33.70
2023-02-11T01:36:26.660Z,36.50
2023-02-11T01:37:00.059Z,35.90
2023-02-11T01:37:36.346Z,37.30
2023-02-11T01:38:19.946Z,35.90
2023-02-11T01:38:53.304Z,34.30
2023-02-11T01:39:27.603Z,36.40
2023-02-11T01:40:02.697Z,34.90
2023-02-11T01:40:36.266Z,33.30
2023-02-11T01:41:12.985Z,33.30
2023-02-11T01:41:46.274Z,34.70
2023-02-11T01:42:22.272Z,35.20
2023-02-11T01:42:55.625Z,31.10
2023-02-11T01:43:33.820Z,36.40
2023-02-11T01:44:33.322Z,35.50
2023-02-11T01:45:44.704Z,32.60
2023-02-11T01:46:37.177Z,32.10
2023-02-11T01:47:10.649Z,32.90
2023-02-11T01:47:43.931Z,35.90
2023-02-11T01:48:23.166Z,34.60
2023-02-11T01:49:17.093Z,34.80
2023-02-11T01:49:57.950Z,31.10
2023-02-11T01:50:31.595Z,32.70
2023-02-11T01:51:32.789Z,34.00
2023-02-11T01:52:12.561Z,32.60
2023-02-11T01:52:48.032Z,31.60
2023-02-11T01:53:40.888Z,31.40
2023-02-11T01:54:37.091Z,30.50
2023-02-11T01:55:32.376Z,31.00
2023-02-11T01:56:26.067Z,32.80
2023-02-11T01:57:19.830Z,30.20
2023-02-11T01:57:57.374Z,33.10
2023-02-11T01:58:33.800Z,32.60
2023-02-11T01:59:13.536Z,32.30
2023-02-11T01:59:55.000Z,33.00
2023-02-11T02:00:36.758Z,30.40
2023-02-11T02:01:13.406Z,29.70
2023-02-11T02:01:53.446Z,31.30
2023-02-11T02:02:45.195Z,31.90
2023-02-11T02:03:22.906Z,30.20
2023-02-11T02:04:02.140Z,29.10
2023-02-11T02:04:42.565Z,30.50
2023-02-11T02:05:24.730Z,29.80
2023-02-11T02:06:06.771Z,32.60
2023-02-11T02:06:59.489Z,32.00
2023-02-11T02:07:39.242Z,28.40
2023-02-11T02:08:29.700Z,31.80
2023-02-11T02:09:11.616Z,28.40
2023-02-11T02:09:53.066Z,24.40
2023-02-11T02:10:28.506Z,30.60
2023-02-11T02:11:02.589Z,29.90
2023-02-11T02:11:37.505Z,30.70
2023-02-11T02:12:10.760Z,30.50
2023-02-11T02:12:44.183Z,32.30
2023-02-11T02:13:17.552Z,33.40
2023-02-11T02:13:50.818Z,33.30
2023-02-11T02:14:26.990Z,33.90
2023-02-11T02:15:20.704Z,33.20
2023-02-11T02:16:07.729Z,29.50
2023-02-11T02:16:42.747Z,30.20
2023-02-11T02:17:42.210Z,32.40
2023-02-11T02:18:42.694Z,28.70
2023-02-11T02:19:46.340Z,28.50
2023-02-11T02:20:58.378Z,29.40
2023-02-11T02:21:49.546Z,25.90
2023-02-11T02:22:22.707Z,27.80
2023-02-11T02:23:15.049Z,30.00
2023-02-11T02:24:00.361Z,28.30
2023-02-11T02:25:11.557Z,29.20
2023-02-11T02:26:22.584Z,26.30
2023-02-11T02:27:11.022Z,24.00
2023-02-11T02:27:57.066Z,28.70
2023-02-11T02:28:38.863Z,28.00
2023-02-11T02:29:35.335Z,28.80
2023-02-11T02:30:23.473Z,28.50
2023-02-11T02:31:25.803Z,27.80
2023-02-11T02:32:41.009Z,26.60
2023-02-11T02:33:22.479Z,24.50
2023-02-11T02:34:02.655Z,25.70
2023-02-11T02:34:56.452Z,27.20
2023-02-11T02:35:35.407Z,26.10
2023-02-11T02:36:28.610Z,25.50
2023-02-11T02:37:31.378Z,27.30
2023-02-11T02:38:17.913Z,24.40
2023-02-11T02:38:57.505Z,23.30
2023-02-11T02:39:36.509Z,24.00
2023-02-11T02:40:17.114Z,28.60
2023-02-11T02:40:56.295Z,27.00
2023-02-11T02:41:33.385Z,25.60
2023-02-11T02:42:07.450Z,28.90
2023-02-11T02:42:42.405Z,28.60
2023-02-11T02:43:17.202Z,29.40
2023-02-11T02:43:52.125Z,30.70
2023-02-11T02:44:26.197Z,26.20
2023-02-11T02:44:59.611Z,28.80
2023-02-11T02:45:33.698Z,28.60
2023-02-11T02:46:18.355Z,25.70
2023-02-11T02:46:52.006Z,27.00
2023-02-11T02:47:25.287Z,30.30
2023-02-11T02:47:58.621Z,29.70
2023-02-11T02:48:35.029Z,24.80
2023-02-11T02:51:33.314Z,26.60
2023-02-11T02:52:19.612Z,24.00
2023-02-11T02:53:42.692Z,24.90
2023-02-11T02:54:38.328Z,22.90
2023-02-11T02:55:34.527Z,24.30
2023-02-11T02:56:31.202Z,23.60
2023-02-11T02:58:00.327Z,23.40
2023-02-11T02:58:49.358Z,24.10
2023-02-11T02:59:34.889Z,24.70
2023-02-11T03:00:30.235Z,20.80
2023-02-11T03:01:42.511Z,25.90
2023-02-11T03:02:27.382Z,26.00
2023-02-11T03:03:28.013Z,24.70
2023-02-11T03:04:53.083Z,23.00
2023-02-11T03:06:02.657Z,19.90
2023-02-11T03:06:56.462Z,22.10
2023-02-11T03:07:40.104Z,23.90
2023-02-11T03:08:30.852Z,24.00
2023-02-11T03:09:16.170Z,21.10
2023-02-11T03:09:58.662Z,24.70
2023-02-11T03:10:37.914Z,23.40
2023-02-11T03:11:14.971Z,26.30
2023-02-11T03:11:48.828Z,26.60
2023-02-11T03:12:23.756Z,23.60
2023-02-11T03:12:58.327Z,25.50
2023-02-11T03:13:35.598Z,26.40
2023-02-11T03:14:13.726Z,27.10
2023-02-11T03:14:50.487Z,25.80
2023-02-11T03:15:27.669Z,27.20
2023-02-11T03:16:11.751Z,26.40
2023-02-11T03:16:46.636Z,24.70
2023-02-11T03:17:21.127Z,27.00
2023-02-11T03:17:59.066Z,25.30
2023-02-11T03:18:36.226Z,27.10
2023-02-11T03:19:37.829Z,28.10
2023-02-11T03:20:14.806Z,24.20
2023-02-11T03:20:52.124Z,27.00
2023-02-11T03:21:26.340Z,26.20
2023-02-11T03:22:07.700Z,27.10
2023-02-11T03:22:53.108Z,25.30
2023-02-11T03:23:41.381Z,25.50
2023-02-11T03:24:37.071Z,26.50
2023-02-11T03:25:10.724Z,26.30
2023-02-11T03:25:53.549Z,27.10
2023-02-11T03:26:34.426Z,26.60
2023-02-11T03:27:47.760Z,27.30
2023-02-11T03:28:35.950Z,23.70
2023-02-11T03:29:55.754Z,26.80
2023-02-11T03:30:39.232Z,24.30
2023-02-11T03:31:57.703Z,25.80
2023-02-11T03:32:37.448Z,24.70
2023-02-11T03:33:27.670Z,26.20
2023-02-11T03:34:41.453Z,24.80
2023-02-11T03:35:18.418Z,24.20
2023-02-11T03:35:57.502Z,23.70
2023-02-11T03:36:51.284Z,25.40
2023-02-11T03:37:32.945Z,22.80
2023-02-11T03:38:34.433Z,26.20
2023-02-11T03:39:11.274Z,25.40
2023-02-11T03:40:03.621Z,22.40
2023-02-11T03:40:39.755Z,24.30
2023-02-11T03:41:16.526Z,23.80
2023-02-11T03:41:51.852Z,23.00
2023-02-11T03:42:30.413Z,27.10
2023-02-11T03:43:10.504Z,26.20
2023-02-11T03:43:51.116Z,27.00
2023-02-11T03:44:30.987Z,26.60
2023-02-11T03:45:09.267Z,28.40
2023-02-11T03:45:44.710Z,22.60
2023-02-11T03:46:21.872Z,28.60
2023-02-11T03:46:56.219Z,24.30
2023-02-11T03:47:32.432Z,26.70
2023-02-11T03:48:14.934Z,27.30
2023-02-11T03:48:56.758Z,26.60
2023-02-11T03:49:32.613Z,27.30
2023-02-11T03:50:10.134Z,26.20
2023-02-11T03:50:46.555Z,26.60
2023-02-11T03:51:23.112Z,26.00
2023-02-11T03:51:58.658Z,26.10
2023-02-11T03:52:34.206Z,24.50
2023-02-11T03:53:10.816Z,28.10
2023-02-11T03:53:46.902Z,27.60
2023-02-11T03:54:31.092Z,27.30
2023-02-11T03:55:11.360Z,27.50
2023-02-11T03:55:47.605Z,27.50
2023-02-11T03:56:27.220Z,28.40
2023-02-11T03:57:02.636Z,27.10
2023-02-11T03:57:36.597Z,26.00
2023-02-11T03:58:10.375Z,29.10
2023-02-11T03:58:46.619Z,27.50
2023-02-11T03:59:20.115Z,27.70
2023-02-11T03:59:58.747Z,27.80
2023-02-11T04:00:35.170Z,28.10
2023-02-11T04:01:10.032Z,29.80
2023-02-11T04:01:43.735Z,29.60
2023-02-11T04:02:17.217Z,29.10
2023-02-11T04:02:50.589Z,26.40
2023-02-11T04:03:24.356Z,28.20
2023-02-11T04:03:57.790Z,26.50
2023-02-11T04:04:31.158Z,29.90
2023-02-11T04:05:06.943Z,29.30
2023-02-11T04:05:40.393Z,29.00
2023-02-11T04:06:13.922Z,28.40
2023-02-11T04:06:47.502Z,29.60
2023-02-11T04:07:21.200Z,29.20
2023-02-11T04:07:54.478Z,28.80
2023-02-11T04:08:27.871Z,27.80
2023-02-11T04:09:01.392Z,29.00
2023-02-11T04:09:37.211Z,28.70
2023-02-11T04:10:12.485Z,29.50
2023-02-11T04:10:45.824Z,29.50
2023-02-11T04:11:19.252Z,29.60
2023-02-11T04:11:52.570Z,30.30
2023-02-11T04:12:26.823Z,28.30
2023-02-11T04:13:00.252Z,28.90
2023-02-11T04:13:34.238Z,29.50
2023-02-11T04:14:07.795Z,29.40
2023-02-11T04:14:41.363Z,30.50
2023-02-11T04:15:14.841Z,29.60
2023-02-11T04:15:49.143Z,28.80
2023-02-11T04:16:23.041Z,29.40
2023-02-11T04:16:56.837Z,29.70
2023-02-11T04:17:30.805Z,30.20
2023-02-11T04:18:04.793Z,30.90
2023-02-11T04:18:38.582Z,30.40
2023-02-11T04:19:12.068Z,30.80
2023-02-11T04:19:45.686Z,31.00
2023-02-11T04:20:19.590Z,29.90
2023-02-11T04:20:52.958Z,31.80
2023-02-11T04:21:26.538Z,30.70
2023-02-11T04:22:00.707Z,30.80
2023-02-11T04:22:34.474Z,31.10
2023-02-11T04:23:07.924Z,30.70
2023-02-11T04:23:41.500Z,30.00
2023-02-11T04:24:14.995Z,30.30
2023-02-11T04:24:48.438Z,31.80
2023-02-11T04:25:21.962Z,30.20
2023-02-11T04:25:55.525Z,31.90
2023-02-11T04:26:28.969Z,31.50
2023-02-11T04:27:02.700Z,31.20
2023-02-11T04:27:37.176Z,29.10
2023-02-11T04:28:10.680Z,29.40
2023-02-11T04:28:44.012Z,31.00
2023-02-11T04:29:17.527Z,30.70
2023-02-11T04:29:51.295Z,29.40
2023-02-11T04:30:24.901Z,30.10
2023-02-11T04:31:04.894Z,30.10
2023-02-11T04:31:41.070Z,29.80
2023-02-11T04:32:14.648Z,29.60
2023-02-11T04:32:48.408Z,30.50
2023-02-11T04:33:22.317Z,28.70
2023-02-11T04:33:56.792Z,31.10
2023-02-11T04:34:30.409Z,30.30
2023-02-11T04:35:04.397Z,31.90
2023-02-11T04:35:37.939Z,30.90
2023-02-11T04:36:11.563Z,28.20
2023-02-11T04:36:45.152Z,31.70
2023-02-11T04:37:18.554Z,32.10
2023-02-11T04:37:52.006Z,30.70
2023-02-11T04:38:26.052Z,32.20
2023-02-11T04:38:59.479Z,32.40
2023-02-11T04:39:33.084Z,31.20
2023-02-11T04:40:07.160Z,31.00
2023-02-11T04:40:41.443Z,32.70
2023-02-11T04:41:14.906Z,32.60
2023-02-11T04:41:48.362Z,31.40
2023-02-11T04:42:21.782Z,32.10
2023-02-11T04:42:55.121Z,30.50
2023-02-11T04:43:29.165Z,30.90
2023-02-11T04:44:02.706Z,30.50
2023-02-11T04:44:36.217Z,32.40
2023-02-11T04:45:09.915Z,31.20
2023-02-11T04:45:43.324Z,27.10
2023-02-11T04:46:16.824Z,30.40
2023-02-11T04:46:50.361Z,32.10
2023-02-11T04:47:23.813Z,31.30
2023-02-11T04:47:57.297Z,31.60
2023-02-11T04:48:30.797Z,30.20
2023-02-11T04:49:04.360Z,31.40
2023-02-11T04:49:38.086Z,32.10
2023-02-11T04:50:11.646Z,31.60
2023-02-11T04:50:45.014Z,29.80
2023-02-11T04:51:18.421Z,29.40
2023-02-11T04:51:51.913Z,30.90
2023-02-11T04:52:25.458Z,31.20
2023-02-11T04:52:58.922Z,31.30
2023-02-11T04:53:32.525Z,30.70
2023-02-11T04:54:06.161Z,29.70
2023-02-11T04:54:39.922Z,29.60
2023-02-11T04:55:13.761Z,31.50
2023-02-11T04:55:51.003Z,31.50
2023-02-11T04:56:24.833Z,30.10
2023-02-11T04:56:58.422Z,31.60
2023-02-11T04:57:31.828Z,31.00
2023-02-11T04:58:05.370Z,32.20
2023-02-11T04:58:38.811Z,32.50
2023-02-11T04:59:13.527Z,33.10
2023-02-11T04:59:46.975Z,29.70
2023-02-11T05:00:20.882Z,32.00
2023-02-11T05:00:55.181Z,31.90
2023-02-11T05:01:28.804Z,32.50
2023-02-11T05:02:02.481Z,32.20
2023-02-11T05:02:36.343Z,33.10
2023-02-11T05:03:10.406Z,32.30
2023-02-11T05:03:44.137Z,32.30
2023-02-11T05:04:17.708Z,32.50
2023-02-11T05:04:51.076Z,32.30
2023-02-11T05:05:25.051Z,32.50
2023-02-11T05:05:58.657Z,31.80
2023-02-11T05:06:32.088Z,32.20
2023-02-11T05:07:05.575Z,33.10
2023-02-11T05:07:39.254Z,31.10
2023-02-11T05:08:12.854Z,31.40
2023-02-11T05:08:46.384Z,31.60
2023-02-11T05:09:19.965Z,33.10
2023-02-11T05:09:53.466Z,33.90
2023-02-11T05:10:27.440Z,33.80
2023-02-11T05:11:02.553Z,33.70
2023-02-11T05:11:36.975Z,32.70
2023-02-11T05:12:10.599Z,32.80
2023-02-11T05:12:44.008Z,31.80
2023-02-11T05:13:17.557Z,28.60
2023-02-11T05:13:51.436Z,29.20
2023-02-11T05:14:24.849Z,32.40
2023-02-11T05:14:58.323Z,34.40
2023-02-11T05:15:31.769Z,31.80
2023-02-11T05:16:05.629Z,27.10
2023-02-11T05:16:39.192Z,34.30
2023-02-11T05:17:12.708Z,36.00
2023-02-11T05:17:46.419Z,35.60
2023-02-11T05:18:19.841Z,34.00
2023-02-11T05:18:55.746Z,35.70
2023-02-11T05:19:29.630Z,34.80
2023-02-11T05:20:03.394Z,35.20
2023-02-11T05:20:39.616Z,34.00
2023-02-11T05:21:17.293Z,35.50
2023-02-11T05:22:02.135Z,34.30
2023-02-11T05:22:36.434Z,32.40
2023-02-11T05:23:10.566Z,33.60
2023-02-11T05:23:44.842Z,34.10
2023-02-11T05:24:18.308Z,33.30
2023-02-11T05:24:51.786Z,33.10
2023-02-11T05:25:25.078Z,32.00
2023-02-11T05:25:58.411Z,33.00
2023-02-11T05:26:32.807Z,34.10
2023-02-11T05:27:06.310Z,35.20
2023-02-11T05:27:39.739Z,34.20
2023-02-11T05:28:13.202Z,35.00
2023-02-11T05:28:46.903Z,34.60
2023-02-11T05:29:20.552Z,32.80
2023-02-11T05:29:53.996Z,32.70
2023-02-11T05:30:27.662Z,34.40
2023-02-11T05:31:01.997Z,35.00
2023-02-11T05:31:35.528Z,34.00
2023-02-11T05:32:09.307Z,33.40
2023-02-11T05:32:42.745Z,33.90
2023-02-11T05:33:16.145Z,32.00
2023-02-11T05:33:49.741Z,32.30
2023-02-11T05:34:23.518Z,34.60
2023-02-11T05:34:57.910Z,34.90
2023-02-11T05:35:31.694Z,34.20
2023-02-11T05:36:08.870Z,33.50
2023-02-11T05:36:42.279Z,33.90
2023-02-11T05:37:17.683Z,31.80
2023-02-11T05:37:51.133Z,34.80
2023-02-11T05:38:24.578Z,35.00
2023-02-11T05:38:58.199Z,32.60
2023-02-11T05:39:31.635Z,34.50
2023-02-11T05:40:05.880Z,32.70
2023-02-11T05:40:39.500Z,30.20
2023-02-11T05:41:13.482Z,32.30
2023-02-11T05:41:47.104Z,35.30
2023-02-11T05:42:20.576Z,32.90
2023-02-11T05:42:54.023Z,34.60
2023-02-11T05:43:27.952Z,33.80
2023-02-11T05:44:01.488Z,34.20
2023-02-11T05:44:35.450Z,32.50
2023-02-11T05:45:09.520Z,31.00
2023-02-11T05:45:43.089Z,29.70
2023-02-11T05:46:17.109Z,33.70
2023-02-11T05:46:50.568Z,34.40
2023-02-11T05:47:24.633Z,34.00
2023-02-11T05:47:58.383Z,34.20
2023-02-11T05:48:32.543Z,33.10
2023-02-11T05:49:06.050Z,33.80
2023-02-11T05:49:39.536Z,33.80
2023-02-11T05:50:13.004Z,32.60
2023-02-11T05:50:46.429Z,31.90
2023-02-11T05:51:20.170Z,32.10
2023-02-11T05:51:53.607Z,33.80
2023-02-11T05:52:27.076Z,33.60
2023-02-11T05:53:00.763Z,30.80
2023-02-11T05:53:34.828Z,33.60
2023-02-11T05:54:08.376Z,34.20
2023-02-11T05:54:41.823Z,34.20
2023-02-11T05:55:15.487Z,32.30
2023-02-11T05:55:49.203Z,33.00
2023-02-11T05:56:22.750Z,32.30
2023-02-11T05:56:56.211Z,32.30
2023-02-11T05:57:29.658Z,31.70
2023-02-11T05:58:03.332Z,32.50
2023-02-11T05:58:36.876Z,32.50
2023-02-11T05:59:13.692Z,33.30
2023-02-11T05:59:47.150Z,33.80
2023-02-11T06:00:20.849Z,32.90
2023-02-11T06:00:54.641Z,33.20
2023-02-11T06:01:28.244Z,33.90
2023-02-11T06:02:02.388Z,33.40
2023-02-11T06:02:36.173Z,33.20
2023-02-11T06:03:10.063Z,29.70
2023-02-11T06:03:43.731Z,33.80
2023-02-11T06:04:17.189Z,33.60
2023-02-11T06:04:50.681Z,35.10
2023-02-11T06:05:26.220Z,34.10
2023-02-11T06:05:59.773Z,28.80
2023-02-11T06:06:33.328Z,32.00
2023-02-11T06:07:06.761Z,33.40
2023-02-11T06:07:40.140Z,33.80
2023-02-11T06:08:13.702Z,34.80
2023-02-11T06:08:47.172Z,34.00
2023-02-11T06:09:20.700Z,33.20
2023-02-11T06:09:54.251Z,32.90
2023-02-11T06:10:27.774Z,33.30
2023-02-11T06:11:01.242Z,30.20
2023-02-11T06:11:34.922Z,33.50
2023-02-11T06:12:08.364Z,35.80
2023-02-11T06:12:41.840Z,33.10
2023-02-11T06:13:15.406Z,34.50
2023-02-11T06:13:48.889Z,35.90
2023-02-11T06:14:22.385Z,34.40
2023-02-11T06:14:58.474Z,33.60
2023-02-11T06:15:31.952Z,34.80
2023-02-11T06:16:05.825Z,35.70
2023-02-11T06:16:39.288Z,33.60
2023-02-11T06:17:15.543Z,32.50
2023-02-11T06:17:49.213Z,32.50
2023-02-11T06:18:22.545Z,33.70
2023-02-11T06:18:56.032Z,34.00
2023-02-11T06:19:29.498Z,29.50
2023-02-11T06:20:05.075Z,34.30
2023-02-11T06:20:41.094Z,34.60
2023-02-11T06:21:14.611Z,34.10
2023-02-11T06:21:48.084Z,33.50
2023-02-11T06:22:21.462Z,34.20
2023-02-11T06:22:55.388Z,33.10
2023-02-11T06:23:30.450Z,34.60
2023-02-11T06:24:04.585Z,34.20
2023-02-11T06:24:59.978Z,35.40
2023-02-11T06:25:31.366Z,31.20
2023-02-11T06:26:07.252Z,33.50
2023-02-11T06:26:40.810Z,33.10
2023-02-11T06:27:14.267Z,34.50
2023-02-11T06:27:47.667Z,33.00
2023-02-11T06:28:21.101Z,34.20
2023-02-11T06:28:54.628Z,33.90
2023-02-11T06:29:28.245Z,33.80
2023-02-11T06:30:01.715Z,30.60
2023-02-11T06:30:37.710Z,30.30
2023-02-11T06:31:12.036Z,31.50
2023-02-11T06:31:45.660Z,33.20
2023-02-11T06:32:39.508Z,32.10
2023-02-11T06:33:13.391Z,30.00
2023-02-11T06:33:46.852Z,32.30
2023-02-11T06:34:20.282Z,32.10
2023-02-11T06:34:53.683Z,32.10
2023-02-11T06:35:27.253Z,30.20
2023-02-11T06:36:01.356Z,32.40
2023-02-11T06:36:35.587Z,33.70
2023-02-11T06:37:08.992Z,32.60
2023-02-11T06:37:43.035Z,33.50
2023-02-11T06:38:16.658Z,33.70
2023-02-11T06:38:50.547Z,33.10
2023-02-11T06:39:24.065Z,33.50
2023-02-11T06:39:57.749Z,32.40
2023-02-11T06:40:31.200Z,33.50
2023-02-11T06:41:04.890Z,32.60
2023-02-11T06:41:38.372Z,32.50
2023-02-11T06:42:11.941Z,32.60
2023-02-11T06:42:45.574Z,31.40
2023-02-11T06:43:19.002Z,31.20
2023-02-11T06:43:53.489Z,31.00
2023-02-11T06:44:27.077Z,31.20
2023-02-11T06:45:00.481Z,30.70
2023-02-11T06:45:34.078Z,30.80
2023-02-11T06:46:08.710Z,32.30
2023-02-11T06:46:42.172Z,31.60
2023-02-11T06:47:15.849Z,31.60
2023-02-11T06:47:52.889Z,31.50
2023-02-11T06:48:26.484Z,30.50
2023-02-11T06:48:59.917Z,32.40
2023-02-11T06:49:33.444Z,31.00
2023-02-11T06:50:08.685Z,30.50
2023-02-11T06:50:42.055Z,30.60
2023-02-11T06:51:16.011Z,27.10
2023-02-11T06:51:49.426Z,32.00
2023-02-11T06:52:23.116Z,31.20
2023-02-11T06:52:56.681Z,30.30
2023-02-11T06:53:30.086Z,30.30
2023-02-11T06:54:06.481Z,23.60
2023-02-11T06:54:39.931Z,30.10
2023-02-11T06:55:13.747Z,29.80
2023-02-11T06:55:47.171Z,30.50
2023-02-11T06:56:24.743Z,29.10
2023-02-11T06:56:58.223Z,29.60
2023-02-11T06:57:32.610Z,28.00
2023-02-11T06:58:06.150Z,30.20
2023-02-11T06:58:40.099Z,29.20
2023-02-11T06:59:18.854Z,32.10
2023-02-11T06:59:52.335Z,31.10
2023-02-11T07:00:26.836Z,30.10
2023-02-11T07:01:00.399Z,30.20
2023-02-11T07:01:33.849Z,29.50
2023-02-11T07:02:09.257Z,30.50
2023-02-11T07:02:42.728Z,30.20
2023-02-11T07:03:16.204Z,30.60
2023-02-11T07:03:50.708Z,30.60
2023-02-11T07:04:24.083Z,31.10
2023-02-11T07:04:57.576Z,29.90
2023-02-11T07:05:31.092Z,29.30
2023-02-11T07:06:05.890Z,30.80
2023-02-11T07:06:42.864Z,30.00
2023-02-11T07:07:19.978Z,28.80
2023-02-11T07:07:53.765Z,28.90
2023-02-11T07:08:27.596Z,29.70
2023-02-11T07:09:01.171Z,30.00
2023-02-11T07:09:34.908Z,30.70
2023-02-11T07:10:08.698Z,30.20
2023-02-11T07:10:42.310Z,30.00
2023-02-11T07:11:21.638Z,29.00
2023-02-11T07:11:55.085Z,29.30
2023-02-11T07:12:28.450Z,27.90
2023-02-11T07:13:02.367Z,29.40
2023-02-11T07:13:36.265Z,29.10
2023-02-11T07:14:10.826Z,28.80
2023-02-11T07:14:44.513Z,30.60
2023-02-11T07:15:18.282Z,29.20
2023-02-11T07:15:52.355Z,29.50
2023-02-11T07:16:26.635Z,29.20
2023-02-11T07:17:00.046Z,29.70
2023-02-11T07:17:35.755Z,29.30
2023-02-11T07:18:09.275Z,27.80
2023-02-11T07:18:43.212Z,28.80
2023-02-11T07:19:17.256Z,27.70
2023-02-11T07:19:50.858Z,29.20
2023-02-11T07:20:24.636Z,29.00
2023-02-11T07:20:58.134Z,29.60
2023-02-11T07:21:31.694Z,27.80
2023-02-11T07:22:05.212Z,29.30
2023-02-11T07:22:38.770Z,26.90
2023-02-11T07:23:12.319Z,27.20
2023-02-11T07:23:46.552Z,27.50
2023-02-11T07:24:20.054Z,26.60
2023-02-11T07:24:53.624Z,28.20
2023-02-11T07:25:27.036Z,28.30
2023-02-11T07:26:09.045Z,27.30
2023-02-11T07:26:42.631Z,25.30
2023-02-11T07:27:16.209Z,26.10
2023-02-11T07:27:50.486Z,27.20
2023-02-11T07:28:23.996Z,26.70
2023-02-11T07:28:57.524Z,25.80
2023-02-11T07:29:31.083Z,23.70
2023-02-11T07:30:07.244Z,27.70
2023-02-11T07:30:40.996Z,27.10
2023-02-11T07:31:20.438Z,23.00
2023-02-11T07:31:53.956Z,23.40
2023-02-11T07:32:27.500Z,25.70
2023-02-11T07:33:00.947Z,23.60
2023-02-11T07:33:35.069Z,21.30
2023-02-11T07:34:10.350Z,24.60
2023-02-11T07:34:43.760Z,23.40
2023-02-11T07:35:17.226Z,24.00
2023-02-11T07:35:50.771Z,24.10
2023-02-11T07:36:24.695Z,24.40
2023-02-11T07:36:58.488Z,25.00
2023-02-11T07:37:34.651Z,23.80
2023-02-11T07:38:08.096Z,25.50
2023-02-11T07:38:42.120Z,24.00
2023-02-11T07:39:15.651Z,22.20
2023-02-11T07:39:49.138Z,23.90
2023-02-11T07:40:22.662Z,23.70
2023-02-11T07:41:00.565Z,22.90
2023-02-11T07:41:37.706Z,21.50
2023-02-11T07:42:11.604Z,23.80
2023-02-11T07:42:45.139Z,20.60
2023-02-11T07:43:18.612Z,21.50
2023-02-11T07:43:52.693Z,23.70
2023-02-11T07:44:26.384Z,23.90
2023-02-11T07:44:59.807Z,21.70
2023-02-11T07:45:33.365Z,24.30
2023-02-11T07:46:14.915Z,23.90
2023-02-11T07:46:49.672Z,22.00
2023-02-11T07:47:23.415Z,18.60
2023-02-11T07:47:56.941Z,20.70
2023-02-11T07:48:30.400Z,23.20
2023-02-11T07:49:03.990Z,21.10
2023-02-11T07:49:37.677Z,24.00
2023-02-11T07:50:12.139Z,23.70
2023-02-11T07:50:45.795Z,24.20
2023-02-11T07:51:21.418Z,22.70
2023-02-11T07:51:54.907Z,25.50
2023-02-11T07:52:31.814Z,21.80
2023-02-11T07:53:05.496Z,23.10
2023-02-11T07:53:39.139Z,23.00
2023-02-11T07:54:12.726Z,24.10